Pagrindinis puslapis
METAR-TAF:

METAR-TAF

Oro uostai :

Mataram, Indonezija

platuma: 08-45-29S, ilguma: 116-16-35E, Aukštis: 97 m

Dabartinis oras

Ataskaita buvo paskelbta 16 minutes, ne 18:00 UTC
Ramus vėjas
Temperatūra 24°C
Drėgmė 94%
Slėgis 1011 hPa
Matomumas: 7000 m
Su prošvaistėmis ne aukštis 1600 ft

METAR: WADL 301800Z 00000KT 7000 BKN016 24/23 Q1011 NOSIG

Laikas: 01:16 (18:16 UTC)

Prognozė

Ataskaita buvo paskelbta 7 valandos ir 16 minutes, ne 11:00 UTC
Prognozė galioja nuo 30 metu 12 UTC su 01 metu 12 UTC
Vėjas 6 kt iš Pietryčių
Matomumas: 7000 m
Su prošvaistėmis ne aukštis 1600 ft

TAF: WADL 301100Z 3012/0112 14006KT 7000 BKN016

Orai ataskaitas ir orų prognozės (METAR, TAF).

turimą stotys yra geltonos ir raudonos taškus žemėlapyje.

Perkelti pele per norėdami pamatyti stoties vardą.

Tada spustelėkite, norėdami matyti oro stebėjimo ir prognozės.

Norėdami pakeisti žemėlapį: spustelėkite ant žalios mygtukų su juodo kryžiaus žemyn,; žalią mygtuką su brūkšneliu, jei norite nutolinti; arba žalių rodyklių gretimoms žemėlapius.


METAR-TAF: